Time;durP1;ratioP1;P1;durP2;ratioP2;P2;SDS_P1;SDS_P2;PMS_P1;PMS_P2;Temp;Humidity;BMP_temperature;BMP_pressure;BME280_temperature;BME280_humidity;BME280_pressure;Samples;Min_cycle;Max_cycle;Signal;HPM_P1;HPM_P2
2022/04/03 00:02:03;;;;;;;3.80;2.07;;;2.20;94.50;;;;;;5080667;28;20430;-67
2022/04/03 00:04:30;;;;;;;3.03;2.40;;;2.20;94.50;;;;;;5080177;28;20581;-68
2022/04/03 00:06:59;;;;;;;2.43;1.57;;;2.20;94.60;;;;;;5080497;28;20915;-63
2022/04/03 00:09:26;;;;;;;4.37;2.33;;;2.10;94.90;;;;;;5080619;28;20526;-65
2022/04/03 00:11:54;;;;;;;6.50;2.20;;;2.20;95.20;;;;;;5080600;28;20467;-65
2022/04/03 00:14:21;;;;;;;3.20;1.40;;;2.20;95.30;;;;;;5080728;28;20429;-60
2022/04/03 00:16:51;;;;;;;2.03;1.47;;;2.20;95.40;;;;;;5080808;28;20458;-65
2022/04/03 00:19:17;;;;;;;2.70;1.33;;;2.20;95.60;;;;;;5079813;28;20462;-61
2022/04/03 00:21:44;;;;;;;3.00;1.57;;;2.10;95.80;;;;;;5065012;28;20451;-68
2022/04/03 00:24:11;;;;;;;3.20;1.30;;;2.10;96.10;;;;;;5058448;28;20532;-70
2022/04/03 00:26:37;;;;;;;2.03;1.50;;;2.10;96.20;;;;;;5058431;28;20458;-69
2022/04/03 00:29:05;;;;;;;2.93;1.93;;;2.10;96.40;;;;;;5058152;28;20447;-68
2022/04/03 00:31:35;;;;;;;3.23;1.80;;;2.10;96.70;;;;;;5058090;28;20575;-68
2022/04/03 00:34:03;;;;;;;5.70;1.50;;;2.10;97.10;;;;;;5058500;28;20500;-68
2022/04/03 00:36:29;;;;;;;2.40;1.70;;;2.10;97.30;;;;;;5058217;28;20473;-70
2022/04/03 00:38:56;;;;;;;4.10;1.47;;;2.00;97.40;;;;;;5057998;28;20516;-67
2022/04/03 00:41:23;;;;;;;2.40;1.63;;;2.00;97.70;;;;;;5058156;28;20467;-71
2022/04/03 00:43:50;;;;;;;2.93;1.60;;;2.00;97.80;;;;;;5058111;28;20545;-71
2022/04/03 00:46:19;;;;;;;2.30;1.77;;;2.00;98.10;;;;;;5058119;28;20461;-69
2022/04/03 00:48:47;;;;;;;2.83;1.60;;;2.00;98.40;;;;;;5058191;28;20443;-70
2022/04/03 00:51:15;;;;;;;3.43;1.37;;;2.00;98.70;;;;;;5057881;28;20821;-69
2022/04/03 00:53:42;;;;;;;4.83;2.17;;;1.90;98.70;;;;;;5058286;28;20489;-69
2022/04/03 00:56:09;;;;;;;2.73;1.70;;;1.90;99.10;;;;;;5057923;28;20501;-70
2022/04/03 00:58:38;;;;;;;9.77;1.77;;;1.90;99.30;;;;;;5057681;28;20535;-71
2022/04/03 01:01:04;;;;;;;1.93;1.30;;;1.90;99.30;;;;;;5057447;28;20470;-70
2022/04/03 01:03:37;;;;;;;2.47;1.97;;;1.90;99.50;;;;;;5057807;28;20455;-69
2022/04/03 01:06:04;;;;;;;3.73;2.07;;;1.90;99.70;;;;;;5057729;28;20533;-69
2022/04/03 01:08:33;;;;;;;3.80;2.30;;;1.80;99.80;;;;;;5056315;28;20451;-68
2022/04/03 01:11:00;;;;;;;4.17;2.23;;;1.80;99.90;;;;;;5057520;28;20470;-66
2022/04/03 01:13:27;;;;;;;2.93;1.70;;;1.80;99.90;;;;;;5057260;28;20506;-69
2022/04/03 01:15:54;;;;;;;3.93;2.17;;;1.80;99.90;;;;;;5057467;28;20471;-68
2022/04/03 01:18:23;;;;;;;2.20;2.00;;;1.70;99.90;;;;;;5057563;28;20806;-68
2022/04/03 01:20:51;;;;;;;5.50;2.03;;;1.70;99.90;;;;;;5057187;28;20502;-68
2022/04/03 01:23:18;;;;;;;3.00;2.10;;;1.70;99.90;;;;;;5057170;28;20952;-69
2022/04/03 01:25:46;;;;;;;2.83;1.90;;;1.70;99.90;;;;;;5057194;28;20521;-70
2022/04/03 01:28:13;;;;;;;2.50;1.60;;;1.70;99.90;;;;;;5057383;28;20912;-66
2022/04/03 01:30:39;;;;;;;5.47;2.20;;;1.60;99.90;;;;;;5057124;28;20503;-67
2022/04/03 01:33:06;;;;;;;4.57;2.03;;;1.60;99.90;;;;;;5057134;28;20487;-68
2022/04/03 01:35:36;;;;;;;5.00;2.30;;;1.50;99.90;;;;;;5057201;28;20467;-68
2022/04/03 01:38:02;;;;;;;5.60;2.03;;;1.50;99.90;;;;;;5056976;28;20907;-68
2022/04/03 01:40:30;;;;;;;3.37;1.87;;;1.50;99.90;;;;;;5057115;28;20479;-69
2022/04/03 01:42:58;;;;;;;2.27;1.63;;;1.50;99.90;;;;;;5061651;28;20451;-67
2022/04/03 01:45:24;;;;;;;4.63;1.80;;;1.50;99.90;;;;;;5061629;28;20474;-68
2022/04/03 01:47:53;;;;;;;4.93;1.60;;;1.40;99.90;;;;;;5062965;28;20462;-68
2022/04/03 01:50:20;;;;;;;4.33;2.27;;;1.50;99.90;;;;;;5065343;28;20520;-67
2022/04/03 01:52:46;;;;;;;3.73;1.77;;;1.40;99.90;;;;;;5065772;28;20688;-67
2022/04/03 01:55:13;;;;;;;4.47;2.30;;;1.40;99.90;;;;;;5065097;28;20473;-68
2022/04/03 01:57:40;;;;;;;3.90;2.00;;;1.50;99.90;;;;;;5065017;28;20461;-69
2022/04/03 02:00:10;;;;;;;4.10;2.47;;;1.50;99.90;;;;;;5066179;28;20475;-70
2022/04/03 02:02:39;;;;;;;3.77;2.00;;;1.50;99.90;;;;;;5065348;28;20470;-67
2022/04/03 02:05:07;;;;;;;4.47;1.93;;;1.50;99.90;;;;;;5066586;28;20470;-68
2022/04/03 02:07:34;;;;;;;4.33;2.80;;;1.40;99.90;;;;;;5067058;28;20509;-68
2022/04/03 02:10:01;;;;;;;3.07;1.87;;;1.40;99.90;;;;;;5066243;28;20459;-68
2022/04/03 02:12:28;;;;;;;6.23;1.67;;;1.50;99.90;;;;;;5067329;28;20479;-67
2022/04/03 02:14:54;;;;;;;3.23;1.60;;;1.50;99.90;;;;;;5065949;28;20517;-66
2022/04/03 02:17:23;;;;;;;2.93;1.73;;;1.50;99.90;;;;;;5065341;28;20439;-63
2022/04/03 02:19:49;;;;;;;3.67;2.50;;;1.50;99.90;;;;;;5072610;28;20436;-67
2022/04/03 02:22:16;;;;;;;5.97;2.03;;;1.50;99.90;;;;;;5074036;28;20459;-67
2022/04/03 02:24:43;;;;;;;3.13;1.50;;;1.50;99.90;;;;;;5074004;28;20531;-66
2022/04/03 02:27:09;;;;;;;2.60;1.53;;;1.60;99.90;;;;;;5073828;28;20502;-66
2022/04/03 02:29:36;;;;;;;3.93;2.63;;;1.60;99.90;;;;;;5074182;28;20431;-67
2022/04/03 02:32:05;;;;;;;3.40;2.40;;;1.70;99.90;;;;;;5073483;28;20986;-67
2022/04/03 02:34:36;;;;;;;2.93;2.00;;;1.70;99.90;;;;;;5074145;28;20784;-63
2022/04/03 02:37:02;;;;;;;2.23;1.50;;;1.80;99.90;;;;;;5073145;28;20534;-70
2022/04/03 02:39:29;;;;;;;5.17;2.03;;;1.80;99.90;;;;;;5073621;28;20547;-66
2022/04/03 02:41:56;;;;;;;7.30;1.77;;;1.90;99.90;;;;;;5073025;28;20485;-68
2022/04/03 02:44:23;;;;;;;2.40;2.00;;;1.90;99.90;;;;;;5074186;28;20451;-68
2022/04/03 02:46:50;;;;;;;5.83;2.57;;;1.90;99.90;;;;;;5073034;28;20467;-65
2022/04/03 02:49:18;;;;;;;2.20;1.77;;;2.00;99.90;;;;;;5071998;28;20442;-69
2022/04/03 02:51:48;;;;;;;3.90;2.10;;;2.00;99.90;;;;;;5070970;28;20471;-62
2022/04/03 02:54:20;;;;;;;5.37;1.90;;;2.10;99.90;;;;;;5071692;28;20437;-66
2022/04/03 02:56:47;;;;;;;4.27;2.80;;;2.10;99.90;;;;;;5072808;28;20464;-68
2022/04/03 02:59:20;;;;;;;3.60;2.13;;;2.00;99.90;;;;;;5072427;28;20452;-70
2022/04/03 03:01:47;;;;;;;3.53;1.93;;;2.00;99.90;;;;;;5072922;28;20471;-70
2022/04/03 03:04:19;;;;;;;3.00;2.10;;;2.10;99.90;;;;;;5076731;28;20465;-63
2022/04/03 03:06:46;;;;;;;3.63;2.27;;;2.10;99.90;;;;;;5077344;28;20455;-60
2022/04/03 03:09:14;;;;;;;1.77;1.57;;;2.10;99.90;;;;;;5077742;28;20483;-64
2022/04/03 03:11:41;;;;;;;3.50;2.63;;;2.10;99.90;;;;;;5077347;28;20471;-65
2022/04/03 03:14:08;;;;;;;2.07;1.70;;;2.10;99.90;;;;;;5077462;28;20471;-64
2022/04/03 03:16:36;;;;;;;4.40;2.20;;;2.10;99.90;;;;;;5077178;28;20467;-66
2022/04/03 03:19:03;;;;;;;2.70;2.00;;;2.10;99.90;;;;;;5074660;28;20481;-70
2022/04/03 03:21:32;;;;;;;3.80;2.10;;;2.10;99.90;;;;;;5072943;28;20463;-65
2022/04/03 03:24:00;;;;;;;3.23;2.30;;;2.10;99.90;;;;;;5073371;28;20419;-66
2022/04/03 03:26:28;;;;;;;4.23;1.90;;;2.10;99.90;;;;;;5073867;28;20485;-67
2022/04/03 03:28:57;;;;;;;4.30;2.63;;;2.10;99.90;;;;;;5074200;28;20450;-68
2022/04/03 03:31:24;;;;;;;2.50;2.30;;;2.10;99.90;;;;;;5072303;28;20479;-66
2022/04/03 03:33:50;;;;;;;4.00;2.17;;;2.00;99.90;;;;;;5073729;28;20977;-66
2022/04/03 03:36:17;;;;;;;6.90;2.53;;;2.00;99.90;;;;;;5073629;28;20472;-66
2022/04/03 03:38:46;;;;;;;4.20;2.57;;;2.00;99.90;;;;;;5073509;28;20443;-67
2022/04/03 03:41:14;;;;;;;7.97;2.70;;;2.00;99.90;;;;;;5072423;28;20450;-64
2022/04/03 03:43:42;;;;;;;2.00;1.70;;;2.00;99.90;;;;;;5073547;28;20440;-67
2022/04/03 03:46:09;;;;;;;4.30;2.80;;;2.10;99.90;;;;;;5073630;28;20427;-66
2022/04/03 03:48:38;;;;;;;4.60;2.43;;;2.10;99.90;;;;;;5072985;28;20432;-67
2022/04/03 03:51:05;;;;;;;5.60;2.47;;;2.10;99.90;;;;;;5072764;28;20489;-67
2022/04/03 03:53:33;;;;;;;5.30;2.60;;;2.10;99.90;;;;;;5072995;28;20502;-68
2022/04/03 03:56:00;;;;;;;3.50;1.87;;;2.10;99.90;;;;;;5072423;28;20451;-67
2022/04/03 03:58:27;;;;;;;4.47;2.90;;;2.20;99.90;;;;;;5072391;28;20451;-68
2022/04/03 04:00:55;;;;;;;4.10;2.47;;;2.20;99.90;;;;;;5073109;28;20466;-68
2022/04/03 04:03:21;;;;;;;6.10;3.47;;;2.30;99.90;;;;;;5071938;28;20464;-66
2022/04/03 04:05:51;;;;;;;5.30;2.60;;;2.30;99.90;;;;;;5073134;28;20462;-68
2022/04/03 04:08:18;;;;;;;4.00;2.03;;;2.20;99.90;;;;;;5072465;28;20427;-66
2022/04/03 04:10:44;;;;;;;5.90;3.43;;;2.30;99.90;;;;;;5072184;28;20451;-67
2022/04/03 04:13:12;;;;;;;11.90;4.60;;;2.30;99.90;;;;;;5071803;28;20509;-66
2022/04/03 04:15:41;;;;;;;2.70;1.73;;;2.30;99.90;;;;;;5072547;28;20448;-68
2022/04/03 04:18:09;;;;;;;2.80;1.87;;;2.30;99.70;;;;;;5073401;28;20488;-67
2022/04/03 04:20:39;;;;;;;2.67;1.63;;;2.20;99.70;;;;;;5072348;28;20435;-68
2022/04/03 04:23:06;;;;;;;1.97;1.43;;;2.20;99.60;;;;;;5072464;28;20467;-67
2022/04/03 04:25:32;;;;;;;2.87;2.00;;;2.20;99.10;;;;;;5072915;28;20447;-66
2022/04/03 04:28:00;;;;;;;3.67;2.40;;;2.10;98.80;;;;;;5073145;28;20528;-63
2022/04/03 04:30:31;;;;;;;2.23;1.70;;;2.10;98.70;;;;;;5072051;28;20439;-67
2022/04/03 04:32:58;;;;;;;3.60;2.17;;;2.10;98.50;;;;;;5070734;28;20513;-68
2022/04/03 04:35:27;;;;;;;3.23;2.33;;;2.10;98.60;;;;;;5068966;28;20474;-68
2022/04/03 04:37:54;;;;;;;2.63;1.80;;;2.10;99.00;;;;;;5068747;28;20493;-69
2022/04/03 04:40:21;;;;;;;4.37;2.17;;;2.10;98.90;;;;;;5068876;28;20451;-63
2022/04/03 04:42:47;;;;;;;3.60;2.60;;;2.10;99.10;;;;;;5070253;28;20658;-66
2022/04/03 04:45:15;;;;;;;3.13;2.40;;;2.20;99.00;;;;;;5073742;28;20942;-66
2022/04/03 04:47:42;;;;;;;3.50;2.43;;;2.10;98.70;;;;;;5074412;28;20501;-66
2022/04/03 04:50:11;;;;;;;7.07;2.87;;;2.10;98.60;;;;;;5074765;28;20458;-66
2022/04/03 04:52:43;;;;;;;5.40;2.73;;;2.10;98.70;;;;;;5076025;28;20487;-67
2022/04/03 04:55:10;;;;;;;4.17;3.33;;;2.10;98.70;;;;;;5075968;28;20443;-66
2022/04/03 04:57:38;;;;;;;3.60;2.10;;;2.10;98.80;;;;;;5075426;28;20960;-67
2022/04/03 05:00:08;;;;;;;6.43;2.37;;;2.10;98.50;;;;;;5076789;28;20935;-69
2022/04/03 05:02:34;;;;;;;3.83;2.30;;;2.10;98.20;;;;;;5076787;28;20467;-67
2022/04/03 05:05:01;;;;;;;7.10;3.00;;;2.10;98.30;;;;;;5076001;28;20439;-67
2022/04/03 05:07:30;;;;;;;6.63;2.80;;;2.10;99.10;;;;;;5076043;28;20459;-68
2022/04/03 05:10:00;;;;;;;6.20;2.37;;;2.10;99.60;;;;;;5076598;28;20436;-68
2022/04/03 05:12:26;;;;;;;3.70;2.33;;;2.10;99.80;;;;;;5075691;28;20450;-67
2022/04/03 05:14:53;;;;;;;3.43;2.60;;;2.10;99.90;;;;;;5075871;28;20500;-67
2022/04/03 05:17:23;;;;;;;3.60;2.37;;;2.10;99.90;;;;;;5075568;28;20463;-64
2022/04/03 05:19:49;;;;;;;4.77;2.13;;;2.10;99.90;;;;;;5076119;28;20444;-67
2022/04/03 05:22:20;;;;;;;3.77;2.50;;;2.20;99.90;;;;;;5076210;28;20447;-69
2022/04/03 05:24:47;;;;;;;3.40;2.33;;;2.20;99.60;;;;;;5076284;28;20448;-66
2022/04/03 05:27:15;;;;;;;2.33;2.13;;;2.20;99.30;;;;;;5072903;28;20447;-53
2022/04/03 05:29:41;;;;;;;3.17;2.43;;;2.20;99.00;;;;;;5076399;28;20470;-67
2022/04/03 05:32:08;;;;;;;2.83;1.53;;;2.20;98.70;;;;;;5058224;28;20491;-68
2022/04/03 05:34:35;;;;;;;2.80;2.00;;;2.20;98.60;;;;;;5062073;28;20482;-67
2022/04/03 05:37:02;;;;;;;5.40;1.87;;;2.20;98.00;;;;;;5054577;28;20447;-68
2022/04/03 05:39:29;;;;;;;4.40;2.20;;;2.20;97.80;;;;;;5044970;28;20448;-70
2022/04/03 05:41:55;;;;;;;4.00;1.87;;;2.20;97.60;;;;;;5058540;28;20447;-68
2022/04/03 05:44:24;;;;;;;2.10;1.90;;;2.20;97.50;;;;;;5058800;28;20537;-67
2022/04/03 05:46:52;;;;;;;7.43;1.80;;;2.30;97.30;;;;;;5058439;28;20465;-70
2022/04/03 05:49:19;;;;;;;2.40;1.80;;;2.40;96.90;;;;;;5063875;28;20446;-67
2022/04/03 05:51:46;;;;;;;4.63;2.33;;;2.40;96.90;;;;;;5058205;28;20768;-68
2022/04/03 05:54:12;;;;;;;3.03;1.90;;;2.50;96.70;;;;;;5057637;28;20486;-68
2022/04/03 05:56:39;;;;;;;4.57;2.40;;;2.50;96.50;;;;;;5057993;28;20450;-69
2022/04/03 05:59:06;;;;;;;2.37;1.90;;;2.50;96.40;;;;;;5058319;28;20735;-69
2022/04/03 06:01:34;;;;;;;2.10;1.67;;;2.60;96.20;;;;;;5058490;28;20463;-69
2022/04/03 06:04:00;;;;;;;2.70;2.30;;;2.50;96.40;;;;;;5058593;28;20463;-68
2022/04/03 06:06:27;;;;;;;3.97;1.87;;;2.60;96.30;;;;;;5058816;28;20501;-71
2022/04/03 06:08:54;;;;;;;3.57;1.97;;;2.60;96.20;;;;;;5058420;28;20839;-67
2022/04/03 06:11:20;;;;;;;4.30;2.40;;;2.70;96.30;;;;;;5058270;28;20521;-70
2022/04/03 06:13:47;;;;;;;4.73;3.63;;;2.60;96.00;;;;;;5058248;28;20845;-68
2022/04/03 06:16:15;;;;;;;3.93;2.10;;;2.70;95.90;;;;;;5058102;28;20508;-70
2022/04/03 06:18:43;;;;;;;4.53;1.90;;;2.70;95.80;;;;;;5057909;28;20467;-69
2022/04/03 06:21:11;;;;;;;3.20;1.50;;;2.70;95.90;;;;;;5058416;28;20443;-70
2022/04/03 06:23:38;;;;;;;2.73;1.60;;;2.70;96.00;;;;;;5057861;28;20467;-64
2022/04/03 06:26:06;;;;;;;5.53;2.23;;;2.80;95.80;;;;;;5057958;28;20451;-71
2022/04/03 06:28:33;;;;;;;3.53;1.90;;;2.80;95.80;;;;;;5057653;28;20781;-69
2022/04/03 06:31:00;;;;;;;3.90;2.20;;;3.00;95.70;;;;;;5057181;28;20469;-70
2022/04/03 06:33:27;;;;;;;5.10;1.93;;;3.00;95.40;;;;;;5057393;28;20498;-66
2022/04/03 06:35:55;;;;;;;3.63;1.73;;;3.10;95.20;;;;;;5057401;28;20455;-67
2022/04/03 06:38:22;;;;;;;2.80;1.97;;;3.10;95.00;;;;;;5056962;28;20502;-68
2022/04/03 06:40:51;;;;;;;2.13;1.50;;;3.20;95.00;;;;;;5056808;28;20775;-69
2022/04/03 06:43:19;;;;;;;5.10;2.30;;;3.40;94.90;;;;;;5056709;28;20462;-71
2022/04/03 06:45:46;;;;;;;1.97;1.77;;;3.50;94.40;;;;;;5057262;28;20431;-68
2022/04/03 06:48:13;;;;;;;2.70;2.20;;;3.50;94.20;;;;;;5057026;28;20486;-73
2022/04/03 06:50:41;;;;;;;6.93;2.00;;;3.50;94.00;;;;;;5057245;28;20423;-68
2022/04/03 06:53:09;;;;;;;8.20;2.33;;;3.40;93.70;;;;;;5057312;28;20527;-68
2022/04/03 06:55:36;;;;;;;7.00;3.00;;;3.30;93.80;;;;;;5057198;28;20448;-68
2022/04/03 06:58:03;;;;;;;3.03;1.97;;;3.30;94.20;;;;;;5056773;28;20461;-69
2022/04/03 07:00:30;;;;;;;3.30;1.70;;;3.30;94.40;;;;;;5056707;28;20512;-68
2022/04/03 07:02:57;;;;;;;3.47;1.80;;;3.30;94.80;;;;;;5056643;28;20927;-69
2022/04/03 07:05:24;;;;;;;6.50;1.80;;;3.30;95.00;;;;;;5056261;28;20926;-68
2022/04/03 07:07:52;;;;;;;2.93;1.73;;;3.40;94.90;;;;;;5056811;28;20494;-68
2022/04/03 07:10:20;;;;;;;4.80;1.77;;;3.50;94.80;;;;;;5056027;28;20551;-69
2022/04/03 07:12:47;;;;;;;6.63;2.53;;;3.70;94.60;;;;;;5055646;28;20926;-67
2022/04/03 07:15:16;;;;;;;3.00;2.20;;;3.90;93.90;;;;;;5052083;28;20514;-70
2022/04/03 07:17:44;;;;;;;2.30;1.83;;;4.00;92.90;;;;;;5048901;28;20447;-68
2022/04/03 07:20:13;;;;;;;3.20;2.00;;;4.20;92.70;;;;;;5043603;28;20551;-69
2022/04/03 07:22:42;;;;;;;3.23;1.70;;;4.40;92.10;;;;;;5042420;28;20443;-68
2022/04/03 07:25:10;;;;;;;2.50;1.70;;;4.60;91.80;;;;;;5046388;28;20488;-67
2022/04/03 07:27:38;;;;;;;2.43;2.20;;;4.80;91.30;;;;;;5046861;28;20811;-68
2022/04/03 07:30:08;;;;;;;2.57;1.70;;;4.90;91.00;;;;;;5046664;28;20464;-67
2022/04/03 07:32:35;;;;;;;2.83;1.53;;;5.00;90.40;;;;;;5043869;28;20506;-68
2022/04/03 07:35:03;;;;;;;4.57;2.20;;;5.10;88.70;;;;;;5054908;28;20497;-68
2022/04/03 07:37:30;;;;;;;3.63;1.90;;;5.10;87.30;;;;;;5055219;28;20452;-68
2022/04/03 07:39:57;;;;;;;4.37;2.10;;;5.20;88.00;;;;;;5054818;28;20549;-68
2022/04/03 07:42:24;;;;;;;8.10;2.67;;;5.40;85.60;;;;;;5055034;28;20466;-68
2022/04/03 07:44:52;;;;;;;3.60;1.77;;;5.50;84.20;;;;;;5054944;28;20463;-68
2022/04/03 07:47:19;;;;;;;2.87;1.57;;;5.40;83.70;;;;;;5054823;28;20927;-67
2022/04/03 07:49:48;;;;;;;2.43;1.80;;;5.60;82.60;;;;;;5055043;28;20463;-71
2022/04/03 07:52:17;;;;;;;2.63;1.47;;;5.60;82.40;;;;;;5054851;28;20908;-70
2022/04/03 07:54:43;;;;;;;3.23;1.67;;;5.70;81.40;;;;;;5054761;28;20491;-68
2022/04/03 07:57:11;;;;;;;6.40;1.87;;;5.70;80.50;;;;;;5054959;28;20458;-65
2022/04/03 07:59:37;;;;;;;3.97;1.70;;;5.70;80.60;;;;;;5054683;28;20479;-69
2022/04/03 08:02:06;;;;;;;6.37;1.70;;;5.70;81.30;;;;;;5054807;28;20457;-70
2022/04/03 08:04:32;;;;;;;3.40;1.90;;;5.80;81.00;;;;;;5054833;28;20464;-68
2022/04/03 08:06:59;;;;;;;3.13;1.70;;;6.00;80.40;;;;;;5054701;28;20481;-66
2022/04/03 08:09:26;;;;;;;5.70;2.50;;;6.20;79.80;;;;;;5054719;28;20459;-68
2022/04/03 08:11:53;;;;;;;2.57;1.80;;;6.10;79.60;;;;;;5054820;28;20431;-68
2022/04/03 08:14:19;;;;;;;2.43;2.17;;;6.10;80.30;;;;;;5054386;28;20487;-69
2022/04/03 08:16:46;;;;;;;2.30;1.83;;;5.90;80.20;;;;;;5054849;28;20777;-67
2022/04/03 08:19:16;;;;;;;5.57;2.00;;;5.70;80.90;;;;;;5051278;28;20753;-69
2022/04/03 08:21:43;;;;;;;2.00;1.40;;;5.70;81.40;;;;;;5058716;28;20477;-68
2022/04/03 08:24:10;;;;;;;2.57;1.90;;;5.70;81.70;;;;;;5058361;28;20483;-69
2022/04/03 08:26:37;;;;;;;3.40;1.70;;;5.70;82.10;;;;;;5058585;28;20446;-68
2022/04/03 08:29:04;;;;;;;2.83;1.53;;;5.70;82.40;;;;;;5059214;28;20442;-69
2022/04/03 08:31:32;;;;;;;4.20;1.37;;;5.70;81.60;;;;;;5058902;28;20459;-68
2022/04/03 08:34:02;;;;;;;1.87;1.10;;;5.90;82.80;;;;;;5058867;28;20585;-69
2022/04/03 08:36:30;;;;;;;4.33;2.20;;;6.10;81.50;;;;;;5058653;28;21039;-71
2022/04/03 08:38:56;;;;;;;3.77;1.77;;;6.40;79.90;;;;;;5058429;28;20537;-71
2022/04/03 08:41:23;;;;;;;1.97;1.33;;;6.60;78.60;;;;;;5058262;28;20470;-70
2022/04/03 08:43:50;;;;;;;2.73;1.40;;;6.70;76.00;;;;;;5057964;28;20458;-71
2022/04/03 08:46:17;;;;;;;3.40;1.47;;;6.90;77.70;;;;;;5057850;28;20835;-70
2022/04/03 08:48:46;;;;;;;2.80;1.30;;;7.40;78.70;;;;;;5061077;28;20446;-71
2022/04/03 08:51:13;;;;;;;5.10;1.20;;;8.30;74.00;;;;;;5057617;28;20540;-71
2022/04/03 08:53:45;;;;;;;2.60;1.63;;;9.80;73.10;;;;;;5057682;28;20786;-70
2022/04/03 08:56:12;;;;;;;2.10;1.90;;;10.60;62.90;;;;;;5057883;28;20478;-66
2022/04/03 08:58:39;;;;;;;4.37;1.87;;;11.10;57.90;;;;;;5058120;28;20508;-67
2022/04/03 09:01:05;;;;;;;1.77;1.20;;;11.30;56.40;;;;;;5057826;28;20483;-66
2022/04/03 09:03:32;;;;;;;3.27;1.60;;;11.90;55.20;;;;;;5041115;28;20440;-67
2022/04/03 09:06:13;;;;;;;1.93;1.40;;;12.40;52.60;;;;;;5037406;28;20463;-66
2022/04/03 09:08:42;;;;;;;3.73;1.60;;;12.80;51.20;;;;;;5037506;28;20885;-70
2022/04/03 09:11:09;;;;;;;3.77;1.80;;;12.70;49.90;;;;;;5037631;28;21061;-67
2022/04/03 09:13:37;;;;;;;3.50;2.10;;;13.20;48.90;;;;;;5037697;28;20470;-69
2022/04/03 09:16:04;;;;;;;3.27;1.90;;;13.00;47.70;;;;;;5037610;28;20531;-69
2022/04/03 09:18:45;;;;;;;2.53;1.50;;;13.00;47.80;;;;;;5037609;28;20825;-68
2022/04/03 09:21:20;;;;;;;2.80;1.77;;;12.40;46.70;;;;;;5037285;28;20472;-70
2022/04/03 09:24:08;;;;;;;5.53;2.03;;;11.90;47.10;;;;;;5019957;28;20774;-71
2022/04/03 09:26:36;;;;;;;2.70;1.40;;;11.30;46.80;;;;;;5037200;28;20475;-69
2022/04/03 09:29:07;;;;;;;5.23;1.90;;;10.60;46.80;;;;;;5036180;28;20447;-70
2022/04/03 09:31:34;;;;;;;5.00;1.90;;;10.10;47.80;;;;;;5036970;28;20920;-68
2022/04/03 09:34:01;;;;;;;4.37;1.80;;;9.40;49.00;;;;;;5036950;28;20463;-71
2022/04/03 09:36:30;;;;;;;2.33;1.50;;;9.50;49.60;;;;;;5037132;28;20475;-71
2022/04/03 09:39:07;;;;;;;1.90;1.47;;;9.50;49.60;;;;;;5036821;28;20968;-69
2022/04/03 09:41:35;;;;;;;2.13;1.23;;;9.60;49.50;;;;;;5044954;28;20476;-69
2022/04/03 09:44:16;;;;;;;3.73;1.20;;;9.90;48.70;;;;;;5043706;28;20890;-70
2022/04/03 09:46:43;;;;;;;3.70;1.47;;;10.10;47.50;;;;;;5044932;28;20506;-70
2022/04/03 09:49:23;;;;;;;6.50;1.90;;;10.10;46.60;;;;;;5046053;28;20513;-69
2022/04/03 09:51:50;;;;;;;1.60;1.30;;;10.20;47.00;;;;;;5044955;28;20820;-68
2022/04/03 09:54:20;;;;;;;5.23;2.17;;;10.40;46.50;;;;;;5045175;28;20476;-71
2022/04/03 09:56:46;;;;;;;3.00;1.30;;;10.60;46.30;;;;;;5045010;28;20809;-70
2022/04/03 09:59:13;;;;;;;4.30;1.30;;;10.20;46.20;;;;;;5048258;28;20531;-70
2022/04/03 10:01:41;;;;;;;2.40;1.83;;;9.60;47.10;;;;;;5048481;28;20460;-63
2022/04/03 10:04:09;;;;;;;1.70;1.30;;;9.20;48.10;;;;;;5049065;28;20467;-64
2022/04/03 10:06:38;;;;;;;1.90;1.40;;;8.70;49.10;;;;;;5066326;28;20471;-69
2022/04/03 10:09:07;;;;;;;4.17;1.90;;;8.40;50.20;;;;;;5051026;28;20456;-70
2022/04/03 10:11:35;;;;;;;5.63;1.87;;;8.20;50.50;;;;;;5050068;28;20491;-68
2022/04/03 10:14:02;;;;;;;2.80;1.60;;;8.00;51.80;;;;;;5050833;28;20436;-72
2022/04/03 10:16:29;;;;;;;2.83;1.43;;;7.80;50.60;;;;;;5049947;28;20456;-68
2022/04/03 10:19:00;;;;;;;6.50;1.60;;;7.60;50.00;;;;;;5069018;28;20473;-70
2022/04/03 10:21:33;;;;;;;2.60;1.60;;;7.40;50.20;;;;;;5065277;28;20471;-69
2022/04/03 10:24:05;;;;;;;3.17;2.00;;;7.40;50.50;;;;;;5061278;28;20463;-67
2022/04/03 10:26:38;;;;;;;2.37;1.30;;;8.40;50.50;;;;;;5067141;28;20505;-70
2022/04/03 10:29:08;;;;;;;3.60;1.60;;;8.90;49.80;;;;;;5065068;28;20946;-69
2022/04/03 10:31:37;;;;;;;5.27;1.77;;;9.00;48.70;;;;;;5067373;28;20550;-65
2022/04/03 10:34:03;;;;;;;2.70;1.93;;;8.60;49.00;;;;;;5063263;28;20468;-70
2022/04/03 10:36:32;;;;;;;3.70;1.90;;;8.10;49.30;;;;;;5070547;28;20424;-68
2022/04/03 10:39:00;;;;;;;2.10;1.63;;;7.80;51.00;;;;;;5067763;28;20483;-69
2022/04/03 10:41:29;;;;;;;2.70;1.50;;;7.90;50.50;;;;;;5069167;28;20508;-71
2022/04/03 10:44:18;;;;;;;3.20;1.63;;;8.20;51.30;;;;;;5068065;28;20439;-71
2022/04/03 10:47:22;;;;;;;4.23;1.50;;;8.70;50.40;;;;;;5067269;28;20471;-71
2022/04/03 10:49:51;;;;;;;2.57;1.67;;;8.80;49.00;;;;;;5065892;28;20475;-63
2022/04/03 10:52:48;;;;;;;3.57;2.37;;;8.60;49.50;;;;;;5069404;28;20458;-68
2022/04/03 10:55:16;;;;;;;3.00;2.00;;;8.50;49.70;;;;;;5069380;28;20487;-65
2022/04/03 10:57:44;;;;;;;2.53;1.83;;;8.10;47.90;;;;;;5071315;28;20479;-65
2022/04/03 11:00:31;;;;;;;1.60;1.50;;;7.80;48.20;;;;;;5068650;28;20587;-70
2022/04/03 11:03:01;;;;;;;3.77;1.50;;;7.60;48.40;;;;;;5061728;28;20467;-69
2022/04/03 11:05:45;;;;;;;1.73;1.47;;;7.70;48.10;;;;;;5059796;28;20439;-69
2022/04/03 11:08:25;;;;;;;2.27;1.60;;;8.00;48.10;;;;;;5040498;28;20547;-68
2022/04/03 11:10:56;;;;;;;2.43;1.90;;;8.60;48.10;;;;;;5053931;28;20451;-72
2022/04/03 11:13:24;;;;;;;2.90;1.90;;;9.10;47.20;;;;;;5059831;28;20486;-72
2022/04/03 11:15:56;;;;;;;1.97;1.60;;;9.40;46.60;;;;;;5058238;28;20482;-70
2022/04/03 11:18:27;;;;;;;2.80;2.07;;;9.00;46.20;;;;;;5058977;28;20441;-70
2022/04/03 11:21:08;;;;;;;2.17;1.93;;;9.00;48.60;;;;;;5041802;28;20471;-70
2022/04/03 11:23:36;;;;;;;2.17;1.27;;;8.80;47.00;;;;;;5049613;28;20443;-70
2022/04/03 11:26:05;;;;;;;3.00;1.70;;;8.40;47.60;;;;;;5054779;28;20437;-69
2022/04/03 11:28:34;;;;;;;2.33;1.40;;;8.40;47.90;;;;;;5040027;28;20456;-69
2022/04/03 11:31:03;;;;;;;3.00;1.60;;;8.60;47.60;;;;;;5039417;28;20515;-69
2022/04/03 11:33:30;;;;;;;2.40;1.13;;;8.70;47.10;;;;;;5039597;28;20428;-70
2022/04/03 11:36:03;;;;;;;1.70;1.10;;;8.60;46.70;;;;;;5039190;28;20503;-71
2022/04/03 11:38:35;;;;;;;5.70;1.67;;;8.80;47.20;;;;;;5038606;28;20424;-70
2022/04/03 11:41:04;;;;;;;3.10;1.30;;;8.90;46.70;;;;;;5038532;28;20507;-72
2022/04/03 11:43:31;;;;;;;2.30;1.50;;;9.10;47.10;;;;;;5039346;28;20448;-70
2022/04/03 11:46:00;;;;;;;1.87;1.63;;;9.50;47.30;;;;;;5039542;28;20464;-67
2022/04/03 11:48:31;;;;;;;2.40;1.83;;;9.30;46.70;;;;;;5039806;28;20454;-68
2022/04/03 11:51:06;;;;;;;3.40;2.00;;;9.00;47.20;;;;;;5040646;28;20432;-69
2022/04/03 11:53:33;;;;;;;1.50;1.30;;;8.60;47.40;;;;;;5040104;28;20440;-68
2022/04/03 11:56:08;;;;;;;2.43;1.40;;;8.30;47.90;;;;;;5041047;28;20874;-69
2022/04/03 11:58:38;;;;;;;2.00;1.80;;;8.20;48.60;;;;;;5040900;28;20782;-66
2022/04/03 12:01:07;;;;;;;5.00;2.10;;;8.20;49.00;;;;;;5040892;28;20464;-70
2022/04/03 12:03:37;;;;;;;4.90;2.00;;;8.20;49.10;;;;;;5039837;28;20495;-68
2022/04/03 12:06:14;;;;;;;3.33;1.77;;;8.30;49.20;;;;;;5039987;28;20472;-64
2022/04/03 12:08:42;;;;;;;2.73;1.80;;;8.40;49.30;;;;;;5039197;28;20567;-71
2022/04/03 12:11:20;;;;;;;2.00;1.67;;;8.50;48.20;;;;;;5039453;28;20460;-69
2022/04/03 12:13:47;;;;;;;2.20;1.83;;;8.40;47.20;;;;;;5040142;28;20498;-70
2022/04/03 12:16:18;;;;;;;2.53;1.30;;;8.30;48.30;;;;;;5041794;28;20500;-71
2022/04/03 12:19:06;;;;;;;1.60;1.37;;;8.30;48.90;;;;;;5040679;28;20467;-68
2022/04/03 12:21:41;;;;;;;2.10;1.50;;;8.20;49.10;;;;;;5040536;28;20719;-68
2022/04/03 12:24:12;;;;;;;2.17;1.40;;;8.10;49.20;;;;;;5042019;28;20508;-69
2022/04/03 12:26:42;;;;;;;2.30;1.60;;;8.10;49.50;;;;;;5040905;28;20512;-69
2022/04/03 12:29:09;;;;;;;2.67;1.53;;;8.10;49.80;;;;;;5040430;28;20439;-67
2022/04/03 12:31:36;;;;;;;2.53;1.50;;;8.20;49.90;;;;;;5039058;28;20471;-70
2022/04/03 12:34:07;;;;;;;3.20;2.20;;;8.30;50.00;;;;;;5040246;28;20455;-70
2022/04/03 12:36:44;;;;;;;3.93;2.40;;;8.40;50.20;;;;;;5039553;28;20791;-68
2022/04/03 12:39:48;;;;;;;3.70;2.50;;;8.50;49.90;;;;;;5040052;28;20490;-69
2022/04/03 12:42:21;;;;;;;2.13;1.70;;;8.50;49.40;;;;;;5039703;28;20483;-68
2022/04/03 12:44:51;;;;;;;3.63;1.40;;;8.40;49.10;;;;;;5040796;28;20436;-71
2022/04/03 12:47:20;;;;;;;5.17;1.77;;;8.30;49.30;;;;;;5039951;28;20496;-65
2022/04/03 12:49:50;;;;;;;1.73;1.60;;;8.30;50.20;;;;;;5039621;28;20448;-71
2022/04/03 12:52:35;;;;;;;2.50;1.20;;;8.10;50.80;;;;;;5041332;28;20440;-70
2022/04/03 12:55:02;;;;;;;5.23;1.63;;;8.10;51.50;;;;;;5040401;28;21032;-69
2022/04/03 13:00:17;;;;;;;3.20;1.60;;;8.60;52.10;;;;;;5039567;28;20484;-69
2022/04/03 13:02:44;;;;;;;3.63;1.60;;;8.70;52.30;;;;;;5039099;28;20470;-70
2022/04/03 13:05:15;;;;;;;2.33;1.37;;;8.90;51.40;;;;;;5042190;28;20502;-72
2022/04/03 13:07:42;;;;;;;3.63;1.80;;;9.00;51.30;;;;;;5043159;28;20939;-68